ロサンゼルス の空港の天気 - METARとTAF

ロサンゼルス国際空港 ( KLAX / LAX ) - アメリカ合衆国 カリフォルニア州ロサンゼルス
飛行場実況気象(Metar)
観測時間07/20 14:53 PDT (07/20 21:53 UTC)
風向・風速西南西 7m/s
視程10km以上
天気現象
少しの雲 雲底高度 3050m
気温26.1℃
湿度65%
気圧1014.8hPa
METARKLAX 202153Z 25013KT 10SM FEW100 26/19 A2997 RMK AO2 SLP148 T02610189 $
過去の天気等 Google飛行場航空写真 Wunderground天気予報

過去48時間のMETAR

飛行場予報(TAF)
発表時間: 7/20 14:04 PDT (7/20 21:04 UTC)
予報対象時間: 20日14時 PDT ~ 21日17時 PDT
風向・風速西 6m/s
視程10km以上
なし
20日23時 PDT から
風向・風速西 3m/s
視程10km以上
全天の4割程度の雲 雲底高度 300m
21日3時 PDT から
風向・風速不定 2m/s
視程10km以上
全天の8割程度の雲 雲底高度 240m
21日6時 PDT から
風向・風速不定 2m/s
視程10km以上
全天の8割程度の雲 雲底高度 370m
21日9時 PDT から
風向・風速西南西 3m/s
視程10km以上
全天の4割程度の雲 雲底高度 460m
21日13時 PDT から
風向・風速西 6m/s
視程10km以上
なし
KLAX 202104Z 2021/2124 26012KT P6SM SKC
FM210600 26006KT P6SM SCT010
FM211000 VRB03KT P6SM BKN008
FM211300 VRB03KT P6SM BKN012
FM211600 24006KT P6SM SCT015
FM212000 26012KT P6SM SKC